sensor_id;sensor_type;location;lat;lon;timestamp;temperature;humidity
13898;DHT22;7019;50.766;4.474;2022-09-09T00:01:23;13.50;99.90
13898;DHT22;7019;50.766;4.474;2022-09-09T00:04:00;13.50;99.90
13898;DHT22;7019;50.766;4.474;2022-09-09T00:06:31;13.60;99.90
13898;DHT22;7019;50.766;4.474;2022-09-09T00:09:04;13.70;99.90
13898;DHT22;7019;50.766;4.474;2022-09-09T00:11:40;13.60;99.90
13898;DHT22;7019;50.766;4.474;2022-09-09T00:14:16;13.70;99.90
13898;DHT22;7019;50.766;4.474;2022-09-09T00:16:56;14.30;99.90
13898;DHT22;7019;50.766;4.474;2022-09-09T00:19:37;13.70;99.90
13898;DHT22;7019;50.766;4.474;2022-09-09T00:22:15;13.50;99.90
13898;DHT22;7019;50.766;4.474;2022-09-09T00:24:53;13.70;99.90
13898;DHT22;7019;50.766;4.474;2022-09-09T00:27:27;14.10;99.90
13898;DHT22;7019;50.766;4.474;2022-09-09T00:30:00;13.90;99.90
13898;DHT22;7019;50.766;4.474;2022-09-09T00:32:31;13.80;99.90
13898;DHT22;7019;50.766;4.474;2022-09-09T00:35:03;13.70;99.90
13898;DHT22;7019;50.766;4.474;2022-09-09T00:37:31;13.90;99.90
13898;DHT22;7019;50.766;4.474;2022-09-09T00:40:13;13.80;99.90
13898;DHT22;7019;50.766;4.474;2022-09-09T00:42:45;13.90;99.90
13898;DHT22;7019;50.766;4.474;2022-09-09T00:45:26;13.90;99.90
13898;DHT22;7019;50.766;4.474;2022-09-09T00:48:04;13.90;99.90
13898;DHT22;7019;50.766;4.474;2022-09-09T00:50:46;13.90;99.90
13898;DHT22;7019;50.766;4.474;2022-09-09T00:53:31;14.00;99.90
13898;DHT22;7019;50.766;4.474;2022-09-09T00:56:09;14.00;99.90
13898;DHT22;7019;50.766;4.474;2022-09-09T00:58:38;13.90;99.90
13898;DHT22;7019;50.766;4.474;2022-09-09T01:01:09;14.00;99.90
13898;DHT22;7019;50.766;4.474;2022-09-09T01:03:44;13.90;99.90
13898;DHT22;7019;50.766;4.474;2022-09-09T01:06:16;13.90;99.90
13898;DHT22;7019;50.766;4.474;2022-09-09T01:09:05;13.90;99.90
13898;DHT22;7019;50.766;4.474;2022-09-09T01:11:44;14.00;99.90
13898;DHT22;7019;50.766;4.474;2022-09-09T01:14:24;13.90;99.90
13898;DHT22;7019;50.766;4.474;2022-09-09T01:16:58;13.90;99.90
13898;DHT22;7019;50.766;4.474;2022-09-09T01:19:39;13.90;99.90
13898;DHT22;7019;50.766;4.474;2022-09-09T01:22:13;13.90;99.90
13898;DHT22;7019;50.766;4.474;2022-09-09T01:24:48;13.90;99.90
13898;DHT22;7019;50.766;4.474;2022-09-09T01:27:23;13.90;99.90
13898;DHT22;7019;50.766;4.474;2022-09-09T01:29:51;13.90;99.90
13898;DHT22;7019;50.766;4.474;2022-09-09T01:32:39;14.00;99.90
13898;DHT22;7019;50.766;4.474;2022-09-09T01:35:09;13.90;99.90
13898;DHT22;7019;50.766;4.474;2022-09-09T01:37:37;13.90;99.90
13898;DHT22;7019;50.766;4.474;2022-09-09T01:40:07;13.90;99.90
13898;DHT22;7019;50.766;4.474;2022-09-09T01:42:40;12.90;99.90
13898;DHT22;7019;50.766;4.474;2022-09-09T01:45:10;13.90;99.90
13898;DHT22;7019;50.766;4.474;2022-09-09T01:47:37;13.90;99.90
13898;DHT22;7019;50.766;4.474;2022-09-09T01:50:06;13.90;99.90
13898;DHT22;7019;50.766;4.474;2022-09-09T01:52:36;13.90;99.90
13898;DHT22;7019;50.766;4.474;2022-09-09T01:55:03;13.80;99.90
13898;DHT22;7019;50.766;4.474;2022-09-09T01:57:34;13.80;99.90
13898;DHT22;7019;50.766;4.474;2022-09-09T02:00:09;13.70;99.90
13898;DHT22;7019;50.766;4.474;2022-09-09T02:02:44;13.70;99.90
13898;DHT22;7019;50.766;4.474;2022-09-09T02:05:27;13.70;99.90
13898;DHT22;7019;50.766;4.474;2022-09-09T02:08:03;13.70;99.90
13898;DHT22;7019;50.766;4.474;2022-09-09T02:10:39;13.70;99.90
13898;DHT22;7019;50.766;4.474;2022-09-09T02:13:12;13.70;99.90
13898;DHT22;7019;50.766;4.474;2022-09-09T02:15:45;13.70;99.90
13898;DHT22;7019;50.766;4.474;2022-09-09T02:18:16;13.60;99.90
13898;DHT22;7019;50.766;4.474;2022-09-09T02:20:47;13.70;99.90
13898;DHT22;7019;50.766;4.474;2022-09-09T02:23:20;13.60;99.90
13898;DHT22;7019;50.766;4.474;2022-09-09T02:25:48;13.60;99.90
13898;DHT22;7019;50.766;4.474;2022-09-09T02:28:22;13.60;99.90
13898;DHT22;7019;50.766;4.474;2022-09-09T02:30:52;13.60;99.90
13898;DHT22;7019;50.766;4.474;2022-09-09T02:33:24;13.50;99.90
13898;DHT22;7019;50.766;4.474;2022-09-09T02:35:54;13.70;99.90
13898;DHT22;7019;50.766;4.474;2022-09-09T02:38:29;13.50;99.90
13898;DHT22;7019;50.766;4.474;2022-09-09T02:41:00;13.40;99.90
13898;DHT22;7019;50.766;4.474;2022-09-09T02:43:31;13.50;99.90
13898;DHT22;7019;50.766;4.474;2022-09-09T02:46:07;13.50;99.90
13898;DHT22;7019;50.766;4.474;2022-09-09T02:48:43;13.40;99.90
13898;DHT22;7019;50.766;4.474;2022-09-09T02:51:18;13.50;99.90
13898;DHT22;7019;50.766;4.474;2022-09-09T02:53:56;13.40;99.90
13898;DHT22;7019;50.766;4.474;2022-09-09T02:56:30;13.40;99.90
13898;DHT22;7019;50.766;4.474;2022-09-09T02:58:59;13.40;99.90
13898;DHT22;7019;50.766;4.474;2022-09-09T03:01:28;13.60;99.90
13898;DHT22;7019;50.766;4.474;2022-09-09T03:03:55;13.40;99.90
13898;DHT22;7019;50.766;4.474;2022-09-09T03:06:22;13.30;99.90
13898;DHT22;7019;50.766;4.474;2022-09-09T03:08:51;13.40;99.90
13898;DHT22;7019;50.766;4.474;2022-09-09T03:11:19;13.30;99.90
13898;DHT22;7019;50.766;4.474;2022-09-09T03:13:49;13.30;99.90
13898;DHT22;7019;50.766;4.474;2022-09-09T03:16:22;13.30;99.90
13898;DHT22;7019;50.766;4.474;2022-09-09T03:18:53;13.60;99.90
13898;DHT22;7019;50.766;4.474;2022-09-09T03:21:20;13.50;99.90
13898;DHT22;7019;50.766;4.474;2022-09-09T03:23:51;13.70;99.90
13898;DHT22;7019;50.766;4.474;2022-09-09T03:26:21;13.50;99.90
13898;DHT22;7019;50.766;4.474;2022-09-09T03:28:48;13.50;99.90
13898;DHT22;7019;50.766;4.474;2022-09-09T03:31:17;13.50;99.90
13898;DHT22;7019;50.766;4.474;2022-09-09T03:33:44;13.50;99.90
13898;DHT22;7019;50.766;4.474;2022-09-09T03:36:21;13.50;99.90
13898;DHT22;7019;50.766;4.474;2022-09-09T03:38:50;13.50;99.90
13898;DHT22;7019;50.766;4.474;2022-09-09T03:41:18;13.60;99.90
13898;DHT22;7019;50.766;4.474;2022-09-09T03:43:50;13.60;99.90
13898;DHT22;7019;50.766;4.474;2022-09-09T03:46:24;13.60;99.90
13898;DHT22;7019;50.766;4.474;2022-09-09T03:48:51;13.60;99.90
13898;DHT22;7019;50.766;4.474;2022-09-09T03:51:20;13.70;99.90
13898;DHT22;7019;50.766;4.474;2022-09-09T03:53:48;13.70;99.90
13898;DHT22;7019;50.766;4.474;2022-09-09T03:56:19;13.70;99.90
13898;DHT22;7019;50.766;4.474;2022-09-09T03:58:49;13.70;99.90
13898;DHT22;7019;50.766;4.474;2022-09-09T04:01:20;14.10;99.90
13898;DHT22;7019;50.766;4.474;2022-09-09T04:03:47;13.70;99.90
13898;DHT22;7019;50.766;4.474;2022-09-09T04:06:17;13.70;99.90
13898;DHT22;7019;50.766;4.474;2022-09-09T04:08:48;13.80;99.90
13898;DHT22;7019;50.766;4.474;2022-09-09T04:11:17;13.80;99.90
13898;DHT22;7019;50.766;4.474;2022-09-09T04:13:45;14.00;99.90
13898;DHT22;7019;50.766;4.474;2022-09-09T04:16:12;14.00;99.90
13898;DHT22;7019;50.766;4.474;2022-09-09T04:18:40;14.00;99.90
13898;DHT22;7019;50.766;4.474;2022-09-09T04:21:10;14.10;99.90
13898;DHT22;7019;50.766;4.474;2022-09-09T04:23:43;14.10;99.90
13898;DHT22;7019;50.766;4.474;2022-09-09T04:26:17;14.20;99.90
13898;DHT22;7019;50.766;4.474;2022-09-09T04:28:45;14.10;99.90
13898;DHT22;7019;50.766;4.474;2022-09-09T04:31:16;14.10;99.90
13898;DHT22;7019;50.766;4.474;2022-09-09T04:33:51;14.00;99.90
13898;DHT22;7019;50.766;4.474;2022-09-09T04:36:21;13.90;99.90
13898;DHT22;7019;50.766;4.474;2022-09-09T04:38:52;14.00;99.90
13898;DHT22;7019;50.766;4.474;2022-09-09T04:41:31;14.00;99.90
13898;DHT22;7019;50.766;4.474;2022-09-09T04:43:58;14.00;99.90
13898;DHT22;7019;50.766;4.474;2022-09-09T04:46:29;14.00;99.90
13898;DHT22;7019;50.766;4.474;2022-09-09T04:49:05;13.50;99.90
13898;DHT22;7019;50.766;4.474;2022-09-09T04:51:33;13.90;99.90
13898;DHT22;7019;50.766;4.474;2022-09-09T04:54:03;14.10;99.90
13898;DHT22;7019;50.766;4.474;2022-09-09T04:56:36;13.90;99.90
13898;DHT22;7019;50.766;4.474;2022-09-09T04:59:09;13.90;99.90
13898;DHT22;7019;50.766;4.474;2022-09-09T05:01:39;14.00;99.90
13898;DHT22;7019;50.766;4.474;2022-09-09T05:04:15;14.00;99.90
13898;DHT22;7019;50.766;4.474;2022-09-09T05:06:47;14.20;99.90
13898;DHT22;7019;50.766;4.474;2022-09-09T05:09:16;15.10;99.90
13898;DHT22;7019;50.766;4.474;2022-09-09T05:11:49;14.20;99.90
13898;DHT22;7019;50.766;4.474;2022-09-09T05:14:17;15.10;99.90
13898;DHT22;7019;50.766;4.474;2022-09-09T05:16:49;14.30;99.90
13898;DHT22;7019;50.766;4.474;2022-09-09T05:19:17;14.50;99.90
13898;DHT22;7019;50.766;4.474;2022-09-09T05:21:45;15.00;99.90
13898;DHT22;7019;50.766;4.474;2022-09-09T05:24:18;14.30;99.90
13898;DHT22;7019;50.766;4.474;2022-09-09T05:27:01;14.40;99.90
13898;DHT22;7019;50.766;4.474;2022-09-09T05:29:34;14.40;99.90
13898;DHT22;7019;50.766;4.474;2022-09-09T05:32:10;14.40;99.90
13898;DHT22;7019;50.766;4.474;2022-09-09T05:35:14;15.10;99.90
13898;DHT22;7019;50.766;4.474;2022-09-09T05:38:20;15.20;99.90
13898;DHT22;7019;50.766;4.474;2022-09-09T05:40:53;14.60;99.90
13898;DHT22;7019;50.766;4.474;2022-09-09T05:43:27;15.30;99.90
13898;DHT22;7019;50.766;4.474;2022-09-09T05:46:03;14.70;99.90
13898;DHT22;7019;50.766;4.474;2022-09-09T05:48:39;14.70;99.90
13898;DHT22;7019;50.766;4.474;2022-09-09T05:51:14;14.60;99.90
13898;DHT22;7019;50.766;4.474;2022-09-09T05:53:46;14.70;99.90
13898;DHT22;7019;50.766;4.474;2022-09-09T05:56:14;14.70;99.90
13898;DHT22;7019;50.766;4.474;2022-09-09T05:58:47;14.70;99.90
13898;DHT22;7019;50.766;4.474;2022-09-09T06:01:17;14.70;99.90
13898;DHT22;7019;50.766;4.474;2022-09-09T06:03:45;14.70;99.90
13898;DHT22;7019;50.766;4.474;2022-09-09T06:06:17;14.70;99.90
13898;DHT22;7019;50.766;4.474;2022-09-09T06:08:50;14.70;99.90
13898;DHT22;7019;50.766;4.474;2022-09-09T06:11:22;14.70;99.90
13898;DHT22;7019;50.766;4.474;2022-09-09T06:13:50;14.80;99.90
13898;DHT22;7019;50.766;4.474;2022-09-09T06:16:21;14.80;99.90
13898;DHT22;7019;50.766;4.474;2022-09-09T06:18:49;14.90;99.90
13898;DHT22;7019;50.766;4.474;2022-09-09T06:21:17;15.00;99.90
13898;DHT22;7019;50.766;4.474;2022-09-09T06:23:45;15.00;99.90
13898;DHT22;7019;50.766;4.474;2022-09-09T06:26:14;15.10;99.90
13898;DHT22;7019;50.766;4.474;2022-09-09T06:28:43;15.10;99.90
13898;DHT22;7019;50.766;4.474;2022-09-09T06:31:14;15.10;99.90
13898;DHT22;7019;50.766;4.474;2022-09-09T06:33:43;15.10;99.90
13898;DHT22;7019;50.766;4.474;2022-09-09T06:36:12;15.10;99.90
13898;DHT22;7019;50.766;4.474;2022-09-09T06:38:40;15.30;99.90
13898;DHT22;7019;50.766;4.474;2022-09-09T06:41:08;15.30;99.90
13898;DHT22;7019;50.766;4.474;2022-09-09T06:43:36;15.30;99.90
13898;DHT22;7019;50.766;4.474;2022-09-09T06:46:05;15.30;99.90
13898;DHT22;7019;50.766;4.474;2022-09-09T06:48:35;15.30;99.90
13898;DHT22;7019;50.766;4.474;2022-09-09T06:51:03;15.30;99.90
13898;DHT22;7019;50.766;4.474;2022-09-09T06:53:31;15.30;99.90
13898;DHT22;7019;50.766;4.474;2022-09-09T06:56:00;15.30;99.90
13898;DHT22;7019;50.766;4.474;2022-09-09T06:58:27;15.20;99.90
13898;DHT22;7019;50.766;4.474;2022-09-09T07:01:02;15.20;99.90
13898;DHT22;7019;50.766;4.474;2022-09-09T07:03:29;15.30;99.90
13898;DHT22;7019;50.766;4.474;2022-09-09T07:05:58;15.40;99.90
13898;DHT22;7019;50.766;4.474;2022-09-09T07:08:25;15.50;99.90
13898;DHT22;7019;50.766;4.474;2022-09-09T07:10:53;15.60;99.90
13898;DHT22;7019;50.766;4.474;2022-09-09T07:13:23;15.70;99.90
13898;DHT22;7019;50.766;4.474;2022-09-09T07:15:51;15.90;99.90
13898;DHT22;7019;50.766;4.474;2022-09-09T07:18:18;15.90;99.90
13898;DHT22;7019;50.766;4.474;2022-09-09T07:20:52;15.90;99.90
13898;DHT22;7019;50.766;4.474;2022-09-09T07:23:21;15.80;99.90
13898;DHT22;7019;50.766;4.474;2022-09-09T07:25:48;15.70;99.90
13898;DHT22;7019;50.766;4.474;2022-09-09T07:28:15;15.70;99.90
13898;DHT22;7019;50.766;4.474;2022-09-09T07:30:43;15.60;99.90
13898;DHT22;7019;50.766;4.474;2022-09-09T07:33:10;15.60;99.90
13898;DHT22;7019;50.766;4.474;2022-09-09T07:35:37;15.50;99.90
13898;DHT22;7019;50.766;4.474;2022-09-09T07:38:04;15.50;99.90
13898;DHT22;7019;50.766;4.474;2022-09-09T07:40:33;15.50;99.90
13898;DHT22;7019;50.766;4.474;2022-09-09T07:43:01;15.50;99.90
13898;DHT22;7019;50.766;4.474;2022-09-09T07:45:28;15.60;99.90
13898;DHT22;7019;50.766;4.474;2022-09-09T07:47:56;15.70;99.90
13898;DHT22;7019;50.766;4.474;2022-09-09T07:50:24;15.70;99.90
13898;DHT22;7019;50.766;4.474;2022-09-09T07:52:51;15.60;99.90
13898;DHT22;7019;50.766;4.474;2022-09-09T07:55:19;15.70;99.90
13898;DHT22;7019;50.766;4.474;2022-09-09T07:57:47;15.80;99.90
13898;DHT22;7019;50.766;4.474;2022-09-09T08:00:15;15.80;99.90
13898;DHT22;7019;50.766;4.474;2022-09-09T08:02:42;16.00;99.90
13898;DHT22;7019;50.766;4.474;2022-09-09T08:05:09;16.00;99.90
13898;DHT22;7019;50.766;4.474;2022-09-09T08:07:35;16.10;99.90
13898;DHT22;7019;50.766;4.474;2022-09-09T08:10:03;16.20;99.90
13898;DHT22;7019;50.766;4.474;2022-09-09T08:12:31;16.30;99.90
13898;DHT22;7019;50.766;4.474;2022-09-09T08:15:00;16.30;99.90
13898;DHT22;7019;50.766;4.474;2022-09-09T08:17:27;16.40;99.90
13898;DHT22;7019;50.766;4.474;2022-09-09T08:19:54;16.40;99.90
13898;DHT22;7019;50.766;4.474;2022-09-09T08:22:20;16.40;99.90
13898;DHT22;7019;50.766;4.474;2022-09-09T08:24:47;16.40;99.90
13898;DHT22;7019;50.766;4.474;2022-09-09T08:27:14;16.40;99.90
13898;DHT22;7019;50.766;4.474;2022-09-09T08:29:41;16.40;99.90
13898;DHT22;7019;50.766;4.474;2022-09-09T08:32:09;16.50;99.90
13898;DHT22;7019;50.766;4.474;2022-09-09T08:34:36;16.40;99.90
13898;DHT22;7019;50.766;4.474;2022-09-09T08:37:03;16.40;99.90
13898;DHT22;7019;50.766;4.474;2022-09-09T08:39:30;16.30;99.90
13898;DHT22;7019;50.766;4.474;2022-09-09T08:45:25;16.20;99.90
13898;DHT22;7019;50.766;4.474;2022-09-09T08:48:06;16.10;99.90
13898;DHT22;7019;50.766;4.474;2022-09-09T08:50:36;16.00;99.90
13898;DHT22;7019;50.766;4.474;2022-09-09T08:53:11;16.00;99.90
13898;DHT22;7019;50.766;4.474;2022-09-09T08:55:43;16.00;99.90
13898;DHT22;7019;50.766;4.474;2022-09-09T08:58:14;15.90;99.90
13898;DHT22;7019;50.766;4.474;2022-09-09T09:01:00;15.90;99.90
13898;DHT22;7019;50.766;4.474;2022-09-09T09:03:38;15.80;99.90
13898;DHT22;7019;50.766;4.474;2022-09-09T09:06:14;15.80;99.90
13898;DHT22;7019;50.766;4.474;2022-09-09T09:08:46;15.80;99.90
13898;DHT22;7019;50.766;4.474;2022-09-09T09:11:17;15.80;99.90
13898;DHT22;7019;50.766;4.474;2022-09-09T09:13:47;15.80;99.90
13898;DHT22;7019;50.766;4.474;2022-09-09T09:16:23;15.80;99.90
13898;DHT22;7019;50.766;4.474;2022-09-09T09:18:53;15.80;99.90
13898;DHT22;7019;50.766;4.474;2022-09-09T09:21:25;15.80;99.90
13898;DHT22;7019;50.766;4.474;2022-09-09T09:23:57;15.70;99.90
13898;DHT22;7019;50.766;4.474;2022-09-09T09:26:29;15.70;99.90
13898;DHT22;7019;50.766;4.474;2022-09-09T09:28:59;15.70;99.90
13898;DHT22;7019;50.766;4.474;2022-09-09T09:31:28;15.70;99.90
13898;DHT22;7019;50.766;4.474;2022-09-09T09:33:56;15.70;99.90
13898;DHT22;7019;50.766;4.474;2022-09-09T09:36:32;15.80;99.90
13898;DHT22;7019;50.766;4.474;2022-09-09T09:39:01;15.80;99.90
13898;DHT22;7019;50.766;4.474;2022-09-09T09:41:36;15.80;99.90
13898;DHT22;7019;50.766;4.474;2022-09-09T09:44:04;15.70;99.90
13898;DHT22;7019;50.766;4.474;2022-09-09T09:46:32;15.70;99.90
13898;DHT22;7019;50.766;4.474;2022-09-09T09:49:02;15.80;99.90
13898;DHT22;7019;50.766;4.474;2022-09-09T09:51:31;15.80;99.90
13898;DHT22;7019;50.766;4.474;2022-09-09T09:54:11;15.80;99.90
13898;DHT22;7019;50.766;4.474;2022-09-09T09:56:41;15.80;99.90
13898;DHT22;7019;50.766;4.474;2022-09-09T09:59:20;15.80;99.90
13898;DHT22;7019;50.766;4.474;2022-09-09T10:01:47;15.80;99.90
13898;DHT22;7019;50.766;4.474;2022-09-09T10:04:17;15.80;99.90
13898;DHT22;7019;50.766;4.474;2022-09-09T10:06:46;15.80;99.90
13898;DHT22;7019;50.766;4.474;2022-09-09T10:09:25;15.80;99.90
13898;DHT22;7019;50.766;4.474;2022-09-09T10:11:57;15.80;99.90
13898;DHT22;7019;50.766;4.474;2022-09-09T10:14:34;15.80;99.90
13898;DHT22;7019;50.766;4.474;2022-09-09T10:17:12;15.80;99.90
13898;DHT22;7019;50.766;4.474;2022-09-09T10:19:53;15.90;99.90
13898;DHT22;7019;50.766;4.474;2022-09-09T10:22:30;15.80;99.90
13898;DHT22;7019;50.766;4.474;2022-09-09T10:25:22;15.80;99.90
13898;DHT22;7019;50.766;4.474;2022-09-09T10:28:06;15.80;99.90
13898;DHT22;7019;50.766;4.474;2022-09-09T10:30:44;15.80;99.90
13898;DHT22;7019;50.766;4.474;2022-09-09T10:33:21;15.80;99.90
13898;DHT22;7019;50.766;4.474;2022-09-09T10:36:02;15.90;99.90
13898;DHT22;7019;50.766;4.474;2022-09-09T10:38:39;16.00;99.90
13898;DHT22;7019;50.766;4.474;2022-09-09T10:41:18;16.10;99.90
13898;DHT22;7019;50.766;4.474;2022-09-09T10:44:12;16.20;99.90
13898;DHT22;7019;50.766;4.474;2022-09-09T10:46:52;16.50;99.90
13898;DHT22;7019;50.766;4.474;2022-09-09T10:49:37;16.60;99.90
13898;DHT22;7019;50.766;4.474;2022-09-09T10:52:15;16.80;99.90
13898;DHT22;7019;50.766;4.474;2022-09-09T10:54:54;16.80;99.90
13898;DHT22;7019;50.766;4.474;2022-09-09T10:57:28;16.90;99.90
13898;DHT22;7019;50.766;4.474;2022-09-09T11:00:02;16.80;99.90
13898;DHT22;7019;50.766;4.474;2022-09-09T11:02:31;16.70;99.90
13898;DHT22;7019;50.766;4.474;2022-09-09T11:05:02;16.70;99.90
13898;DHT22;7019;50.766;4.474;2022-09-09T11:07:35;16.70;99.90
13898;DHT22;7019;50.766;4.474;2022-09-09T11:10:16;16.70;99.90
13898;DHT22;7019;50.766;4.474;2022-09-09T11:12:46;16.70;99.90
13898;DHT22;7019;50.766;4.474;2022-09-09T11:15:20;16.80;99.90
13898;DHT22;7019;50.766;4.474;2022-09-09T11:17:52;16.90;99.90
13898;DHT22;7019;50.766;4.474;2022-09-09T11:20:20;16.90;99.90
13898;DHT22;7019;50.766;4.474;2022-09-09T11:22:51;16.90;99.90
13898;DHT22;7019;50.766;4.474;2022-09-09T11:25:25;17.00;99.90
13898;DHT22;7019;50.766;4.474;2022-09-09T11:28:13;17.10;99.90
13898;DHT22;7019;50.766;4.474;2022-09-09T11:30:58;17.20;99.90
13898;DHT22;7019;50.766;4.474;2022-09-09T11:36:45;17.40;99.90
13898;DHT22;7019;50.766;4.474;2022-09-09T11:39:49;17.50;99.90
13898;DHT22;7019;50.766;4.474;2022-09-09T11:42:22;17.60;99.90
13898;DHT22;7019;50.766;4.474;2022-09-09T11:44:49;17.70;99.90
13898;DHT22;7019;50.766;4.474;2022-09-09T11:47:22;17.80;99.90
13898;DHT22;7019;50.766;4.474;2022-09-09T11:49:54;18.00;99.90
13898;DHT22;7019;50.766;4.474;2022-09-09T11:52:23;18.20;99.90
13898;DHT22;7019;50.766;4.474;2022-09-09T11:54:55;18.30;99.90
13898;DHT22;7019;50.766;4.474;2022-09-09T11:57:26;18.20;99.90
13898;DHT22;7019;50.766;4.474;2022-09-09T11:59:54;18.10;99.90
13898;DHT22;7019;50.766;4.474;2022-09-09T12:02:24;18.10;99.90
13898;DHT22;7019;50.766;4.474;2022-09-09T12:04:56;18.00;99.90
13898;DHT22;7019;50.766;4.474;2022-09-09T12:07:30;18.00;99.90
13898;DHT22;7019;50.766;4.474;2022-09-09T12:10:02;18.20;99.90
13898;DHT22;7019;50.766;4.474;2022-09-09T12:12:32;18.20;99.90
13898;DHT22;7019;50.766;4.474;2022-09-09T12:15:21;18.10;99.90
13898;DHT22;7019;50.766;4.474;2022-09-09T12:17:50;18.20;99.90
13898;DHT22;7019;50.766;4.474;2022-09-09T12:20:20;18.20;99.90
13898;DHT22;7019;50.766;4.474;2022-09-09T12:23:02;18.20;99.90
13898;DHT22;7019;50.766;4.474;2022-09-09T12:25:46;18.30;99.90
13898;DHT22;7019;50.766;4.474;2022-09-09T12:28:17;18.40;99.90
13898;DHT22;7019;50.766;4.474;2022-09-09T12:30:52;18.40;99.90
13898;DHT22;7019;50.766;4.474;2022-09-09T12:33:22;18.20;99.90
13898;DHT22;7019;50.766;4.474;2022-09-09T12:35:53;18.30;99.90
13898;DHT22;7019;50.766;4.474;2022-09-09T12:38:27;18.40;99.90
13898;DHT22;7019;50.766;4.474;2022-09-09T12:40:58;18.50;99.90
13898;DHT22;7019;50.766;4.474;2022-09-09T12:43:27;18.70;99.90
13898;DHT22;7019;50.766;4.474;2022-09-09T12:45:57;18.80;99.90
13898;DHT22;7019;50.766;4.474;2022-09-09T12:48:31;18.90;99.90
13898;DHT22;7019;50.766;4.474;2022-09-09T12:50:59;19.00;99.90
13898;DHT22;7019;50.766;4.474;2022-09-09T12:53:30;18.90;99.90
13898;DHT22;7019;50.766;4.474;2022-09-09T12:56:03;18.90;99.90
13898;DHT22;7019;50.766;4.474;2022-09-09T12:58:32;19.00;99.90
13898;DHT22;7019;50.766;4.474;2022-09-09T13:01:02;19.00;99.90
13898;DHT22;7019;50.766;4.474;2022-09-09T13:03:31;18.90;99.90
13898;DHT22;7019;50.766;4.474;2022-09-09T13:06:11;18.70;99.90
13898;DHT22;7019;50.766;4.474;2022-09-09T13:08:39;18.60;99.90
13898;DHT22;7019;50.766;4.474;2022-09-09T13:11:12;18.40;99.90
13898;DHT22;7019;50.766;4.474;2022-09-09T13:13:42;18.40;99.90
13898;DHT22;7019;50.766;4.474;2022-09-09T13:16:20;18.40;99.90
13898;DHT22;7019;50.766;4.474;2022-09-09T13:18:48;18.50;99.90
13898;DHT22;7019;50.766;4.474;2022-09-09T13:21:16;18.70;99.90
13898;DHT22;7019;50.766;4.474;2022-09-09T13:23:49;18.80;99.90
13898;DHT22;7019;50.766;4.474;2022-09-09T13:26:24;18.90;99.90
13898;DHT22;7019;50.766;4.474;2022-09-09T13:28:52;19.00;99.90
13898;DHT22;7019;50.766;4.474;2022-09-09T13:31:21;19.20;99.90
13898;DHT22;7019;50.766;4.474;2022-09-09T13:33:48;19.20;99.90
13898;DHT22;7019;50.766;4.474;2022-09-09T13:36:15;19.20;99.90
13898;DHT22;7019;50.766;4.474;2022-09-09T13:38:53;19.30;99.90
13898;DHT22;7019;50.766;4.474;2022-09-09T13:41:24;19.30;99.90
13898;DHT22;7019;50.766;4.474;2022-09-09T13:43:52;19.40;99.90
13898;DHT22;7019;50.766;4.474;2022-09-09T13:46:25;19.60;99.90
13898;DHT22;7019;50.766;4.474;2022-09-09T13:48:56;19.60;99.90
13898;DHT22;7019;50.766;4.474;2022-09-09T13:51:32;19.70;99.90
13898;DHT22;7019;50.766;4.474;2022-09-09T13:54:00;19.80;99.90
13898;DHT22;7019;50.766;4.474;2022-09-09T13:56:28;19.80;99.90
13898;DHT22;7019;50.766;4.474;2022-09-09T13:58:55;19.80;99.90
13898;DHT22;7019;50.766;4.474;2022-09-09T14:01:23;19.80;99.90
13898;DHT22;7019;50.766;4.474;2022-09-09T14:03:50;19.80;99.90
13898;DHT22;7019;50.766;4.474;2022-09-09T14:06:18;19.70;99.90
13898;DHT22;7019;50.766;4.474;2022-09-09T14:08:47;19.60;99.90
13898;DHT22;7019;50.766;4.474;2022-09-09T14:11:14;19.60;99.90
13898;DHT22;7019;50.766;4.474;2022-09-09T14:13:43;19.60;99.90
13898;DHT22;7019;50.766;4.474;2022-09-09T14:16:10;19.70;99.90
13898;DHT22;7019;50.766;4.474;2022-09-09T14:18:37;20.00;99.90
13898;DHT22;7019;50.766;4.474;2022-09-09T14:21:04;20.10;99.90
13898;DHT22;7019;50.766;4.474;2022-09-09T14:23:31;20.20;99.90
13898;DHT22;7019;50.766;4.474;2022-09-09T14:25:59;20.10;99.90
13898;DHT22;7019;50.766;4.474;2022-09-09T14:28:26;19.80;99.90
13898;DHT22;7019;50.766;4.474;2022-09-09T14:30:58;19.80;99.90
13898;DHT22;7019;50.766;4.474;2022-09-09T14:33:25;19.80;99.90
13898;DHT22;7019;50.766;4.474;2022-09-09T14:35:56;19.80;99.90
13898;DHT22;7019;50.766;4.474;2022-09-09T14:38:23;19.80;99.90
13898;DHT22;7019;50.766;4.474;2022-09-09T14:40:49;19.70;99.90
13898;DHT22;7019;50.766;4.474;2022-09-09T14:43:16;19.70;99.90
13898;DHT22;7019;50.766;4.474;2022-09-09T14:45:44;19.70;99.90
13898;DHT22;7019;50.766;4.474;2022-09-09T14:48:12;19.70;99.90
13898;DHT22;7019;50.766;4.474;2022-09-09T14:50:40;19.70;99.90
13898;DHT22;7019;50.766;4.474;2022-09-09T14:53:07;19.70;99.90
13898;DHT22;7019;50.766;4.474;2022-09-09T14:55:34;19.70;99.90
13898;DHT22;7019;50.766;4.474;2022-09-09T14:58:01;19.80;99.90
13898;DHT22;7019;50.766;4.474;2022-09-09T15:00:28;19.90;99.90
13898;DHT22;7019;50.766;4.474;2022-09-09T15:02:56;20.00;99.90
13898;DHT22;7019;50.766;4.474;2022-09-09T15:05:24;20.00;99.90
13898;DHT22;7019;50.766;4.474;2022-09-09T15:07:51;20.00;99.90
13898;DHT22;7019;50.766;4.474;2022-09-09T15:10:18;19.90;99.90
13898;DHT22;7019;50.766;4.474;2022-09-09T15:12:45;19.60;99.90
13898;DHT22;7019;50.766;4.474;2022-09-09T15:15:12;19.50;99.90
13898;DHT22;7019;50.766;4.474;2022-09-09T15:17:39;19.40;99.90
13898;DHT22;7019;50.766;4.474;2022-09-09T15:20:07;19.40;99.90
13898;DHT22;7019;50.766;4.474;2022-09-09T15:22:35;19.50;99.90
13898;DHT22;7019;50.766;4.474;2022-09-09T15:25:04;19.60;99.90
13898;DHT22;7019;50.766;4.474;2022-09-09T15:27:31;19.60;99.90
13898;DHT22;7019;50.766;4.474;2022-09-09T15:29:59;19.70;99.90
13898;DHT22;7019;50.766;4.474;2022-09-09T15:32:27;19.60;99.90
13898;DHT22;7019;50.766;4.474;2022-09-09T15:34:54;19.60;99.90
13898;DHT22;7019;50.766;4.474;2022-09-09T15:37:21;19.50;99.90
13898;DHT22;7019;50.766;4.474;2022-09-09T15:39:49;19.40;99.90
13898;DHT22;7019;50.766;4.474;2022-09-09T15:42:16;19.30;99.90
13898;DHT22;7019;50.766;4.474;2022-09-09T15:44:43;19.30;99.90
13898;DHT22;7019;50.766;4.474;2022-09-09T15:47:11;19.10;99.90
13898;DHT22;7019;50.766;4.474;2022-09-09T15:49:39;19.00;99.90
13898;DHT22;7019;50.766;4.474;2022-09-09T15:52:06;18.90;99.90
13898;DHT22;7019;50.766;4.474;2022-09-09T15:54:34;18.80;99.90
13898;DHT22;7019;50.766;4.474;2022-09-09T15:57:04;18.80;99.90
13898;DHT22;7019;50.766;4.474;2022-09-09T15:59:32;18.80;99.90
13898;DHT22;7019;50.766;4.474;2022-09-09T16:01:59;18.90;99.90
13898;DHT22;7019;50.766;4.474;2022-09-09T16:04:27;19.00;99.90
13898;DHT22;7019;50.766;4.474;2022-09-09T16:06:55;19.10;99.90
13898;DHT22;7019;50.766;4.474;2022-09-09T16:09:24;19.20;99.90
13898;DHT22;7019;50.766;4.474;2022-09-09T16:11:51;19.40;99.90
13898;DHT22;7019;50.766;4.474;2022-09-09T16:14:20;19.50;99.90
13898;DHT22;7019;50.766;4.474;2022-09-09T16:16:48;19.50;99.90
13898;DHT22;7019;50.766;4.474;2022-09-09T16:19:15;19.60;99.90